sensor_id;sensor_type;location;lat;lon;timestamp;P1;durP1;ratioP1;P2;durP2;ratioP2
36963;SDS011;22878;48.616;35.326;2022-12-18T00:02:22;38.05;;;13.20;;
36963;SDS011;22878;48.616;35.326;2022-12-18T00:04:48;38.75;;;14.23;;
36963;SDS011;22878;48.616;35.326;2022-12-18T00:07:14;36.15;;;13.50;;
36963;SDS011;22878;48.616;35.326;2022-12-18T00:09:40;29.87;;;12.63;;
36963;SDS011;22878;48.616;35.326;2022-12-18T00:12:06;27.87;;;12.15;;
36963;SDS011;22878;48.616;35.326;2022-12-18T00:14:33;32.38;;;12.47;;
36963;SDS011;22878;48.616;35.326;2022-12-18T00:16:59;29.37;;;11.80;;
36963;SDS011;22878;48.616;35.326;2022-12-18T00:19:25;23.92;;;10.05;;
36963;SDS011;22878;48.616;35.326;2022-12-18T00:21:52;30.02;;;10.80;;
36963;SDS011;22878;48.616;35.326;2022-12-18T00:24:19;30.08;;;10.85;;
36963;SDS011;22878;48.616;35.326;2022-12-18T00:26:45;26.42;;;10.68;;
36963;SDS011;22878;48.616;35.326;2022-12-18T00:29:11;25.62;;;9.80;;
36963;SDS011;22878;48.616;35.326;2022-12-18T00:31:39;21.68;;;8.98;;
36963;SDS011;22878;48.616;35.326;2022-12-18T00:34:08;21.70;;;9.25;;
36963;SDS011;22878;48.616;35.326;2022-12-18T00:39:53;23.02;;;9.70;;
36963;SDS011;22878;48.616;35.326;2022-12-18T00:42:19;20.50;;;7.28;;
36963;SDS011;22878;48.616;35.326;2022-12-18T00:45:04;19.30;;;7.03;;
36963;SDS011;22878;48.616;35.326;2022-12-18T00:47:30;20.60;;;7.33;;
36963;SDS011;22878;48.616;35.326;2022-12-18T00:49:57;15.75;;;6.67;;
36963;SDS011;22878;48.616;35.326;2022-12-18T00:52:23;19.40;;;7.67;;
36963;SDS011;22878;48.616;35.326;2022-12-18T00:54:49;17.85;;;7.87;;
36963;SDS011;22878;48.616;35.326;2022-12-18T00:57:15;22.25;;;8.65;;
36963;SDS011;22878;48.616;35.326;2022-12-18T00:59:40;25.50;;;9.70;;
36963;SDS011;22878;48.616;35.326;2022-12-18T01:02:07;23.07;;;11.33;;
36963;SDS011;22878;48.616;35.326;2022-12-18T01:04:33;26.30;;;11.85;;
36963;SDS011;22878;48.616;35.326;2022-12-18T01:06:59;31.33;;;12.90;;
36963;SDS011;22878;48.616;35.326;2022-12-18T01:09:25;26.57;;;12.40;;
36963;SDS011;22878;48.616;35.326;2022-12-18T01:11:51;31.30;;;14.05;;
36963;SDS011;22878;48.616;35.326;2022-12-18T01:14:17;32.00;;;13.18;;
36963;SDS011;22878;48.616;35.326;2022-12-18T01:16:43;26.33;;;12.28;;
36963;SDS011;22878;48.616;35.326;2022-12-18T01:19:09;25.95;;;12.23;;
36963;SDS011;22878;48.616;35.326;2022-12-18T01:21:35;22.45;;;9.85;;
36963;SDS011;22878;48.616;35.326;2022-12-18T01:24:01;21.27;;;8.38;;
36963;SDS011;22878;48.616;35.326;2022-12-18T01:26:28;18.15;;;8.13;;
36963;SDS011;22878;48.616;35.326;2022-12-18T01:28:55;21.40;;;8.43;;
36963;SDS011;22878;48.616;35.326;2022-12-18T01:31:25;20.50;;;8.20;;
36963;SDS011;22878;48.616;35.326;2022-12-18T01:33:55;23.83;;;9.50;;
36963;SDS011;22878;48.616;35.326;2022-12-18T01:38:53;20.05;;;8.03;;
36963;SDS011;22878;48.616;35.326;2022-12-18T01:43:55;21.57;;;9.28;;
36963;SDS011;22878;48.616;35.326;2022-12-18T01:46:23;26.77;;;10.72;;
36963;SDS011;22878;48.616;35.326;2022-12-18T01:48:52;28.05;;;9.90;;
36963;SDS011;22878;48.616;35.326;2022-12-18T01:51:22;27.48;;;11.03;;
36963;SDS011;22878;48.616;35.326;2022-12-18T01:53:48;32.30;;;12.25;;
36963;SDS011;22878;48.616;35.326;2022-12-18T01:56:16;37.80;;;13.40;;
36963;SDS011;22878;48.616;35.326;2022-12-18T01:58:52;34.75;;;13.00;;
36963;SDS011;22878;48.616;35.326;2022-12-18T02:01:26;30.40;;;12.15;;
36963;SDS011;22878;48.616;35.326;2022-12-18T02:03:55;35.43;;;12.85;;
36963;SDS011;22878;48.616;35.326;2022-12-18T02:06:25;40.35;;;12.95;;
36963;SDS011;22878;48.616;35.326;2022-12-18T02:12:04;40.70;;;13.30;;
36963;SDS011;22878;48.616;35.326;2022-12-18T02:17:42;41.02;;;13.43;;
36963;SDS011;22878;48.616;35.326;2022-12-18T02:23:11;35.93;;;13.03;;
36963;SDS011;22878;48.616;35.326;2022-12-18T02:28:41;32.50;;;10.88;;
36963;SDS011;22878;48.616;35.326;2022-12-18T02:31:23;26.23;;;9.75;;
36963;SDS011;22878;48.616;35.326;2022-12-18T02:33:53;30.23;;;10.85;;
36963;SDS011;22878;48.616;35.326;2022-12-18T02:36:21;24.32;;;9.20;;
36963;SDS011;22878;48.616;35.326;2022-12-18T02:38:49;22.50;;;9.00;;
36963;SDS011;22878;48.616;35.326;2022-12-18T02:41:17;21.60;;;7.92;;
36963;SDS011;22878;48.616;35.326;2022-12-18T02:43:53;21.17;;;8.15;;
36963;SDS011;22878;48.616;35.326;2022-12-18T02:49:03;11.48;;;5.28;;
36963;SDS011;22878;48.616;35.326;2022-12-18T02:51:55;10.48;;;4.47;;
36963;SDS011;22878;48.616;35.326;2022-12-18T02:54:45;7.00;;;4.00;;
36963;SDS011;22878;48.616;35.326;2022-12-18T02:57:21;10.10;;;4.25;;
36963;SDS011;22878;48.616;35.326;2022-12-18T03:02:56;6.50;;;3.67;;
36963;SDS011;22878;48.616;35.326;2022-12-18T03:05:38;7.72;;;3.58;;
36963;SDS011;22878;48.616;35.326;2022-12-18T03:10:49;5.78;;;3.35;;
36963;SDS011;22878;48.616;35.326;2022-12-18T03:13:23;6.50;;;3.62;;
36963;SDS011;22878;48.616;35.326;2022-12-18T03:15:57;6.28;;;3.67;;
36963;SDS011;22878;48.616;35.326;2022-12-18T03:18:29;6.03;;;3.70;;
36963;SDS011;22878;48.616;35.326;2022-12-18T03:21:00;6.95;;;3.60;;
36963;SDS011;22878;48.616;35.326;2022-12-18T03:23:32;6.83;;;3.72;;
36963;SDS011;22878;48.616;35.326;2022-12-18T03:26:03;6.95;;;3.55;;
36963;SDS011;22878;48.616;35.326;2022-12-18T03:28:33;6.22;;;3.52;;
36963;SDS011;22878;48.616;35.326;2022-12-18T03:31:04;7.83;;;4.10;;
36963;SDS011;22878;48.616;35.326;2022-12-18T03:36:19;5.78;;;3.42;;
36963;SDS011;22878;48.616;35.326;2022-12-18T03:38:45;6.58;;;3.52;;
36963;SDS011;22878;48.616;35.326;2022-12-18T03:41:19;7.08;;;4.03;;
36963;SDS011;22878;48.616;35.326;2022-12-18T03:49:44;5.95;;;3.62;;
36963;SDS011;22878;48.616;35.326;2022-12-18T03:55:07;5.73;;;3.20;;
36963;SDS011;22878;48.616;35.326;2022-12-18T03:57:35;6.35;;;3.12;;
36963;SDS011;22878;48.616;35.326;2022-12-18T04:00:05;5.30;;;3.15;;
36963;SDS011;22878;48.616;35.326;2022-12-18T04:02:40;5.58;;;3.22;;
36963;SDS011;22878;48.616;35.326;2022-12-18T04:05:10;5.17;;;3.10;;
36963;SDS011;22878;48.616;35.326;2022-12-18T04:07:37;4.28;;;2.65;;
36963;SDS011;22878;48.616;35.326;2022-12-18T04:10:05;3.30;;;1.95;;
36963;SDS011;22878;48.616;35.326;2022-12-18T04:12:36;2.80;;;2.00;;
36963;SDS011;22878;48.616;35.326;2022-12-18T04:15:03;2.30;;;1.50;;
36963;SDS011;22878;48.616;35.326;2022-12-18T04:17:30;3.67;;;2.10;;
36963;SDS011;22878;48.616;35.326;2022-12-18T04:19:56;6.35;;;1.90;;
36963;SDS011;22878;48.616;35.326;2022-12-18T04:22:22;3.90;;;1.57;;
36963;SDS011;22878;48.616;35.326;2022-12-18T04:24:48;2.70;;;1.90;;
36963;SDS011;22878;48.616;35.326;2022-12-18T04:27:14;2.27;;;1.87;;
36963;SDS011;22878;48.616;35.326;2022-12-18T04:29:40;2.55;;;1.80;;
36963;SDS011;22878;48.616;35.326;2022-12-18T04:32:06;3.58;;;1.92;;
36963;SDS011;22878;48.616;35.326;2022-12-18T04:34:33;2.65;;;1.65;;
36963;SDS011;22878;48.616;35.326;2022-12-18T04:36:58;2.98;;;1.70;;
36963;SDS011;22878;48.616;35.326;2022-12-18T04:41:57;3.22;;;2.12;;
36963;SDS011;22878;48.616;35.326;2022-12-18T04:44:25;3.35;;;1.98;;
36963;SDS011;22878;48.616;35.326;2022-12-18T04:46:50;2.62;;;2.00;;
36963;SDS011;22878;48.616;35.326;2022-12-18T04:49:16;2.40;;;1.85;;
36963;SDS011;22878;48.616;35.326;2022-12-18T04:51:42;4.03;;;1.90;;
36963;SDS011;22878;48.616;35.326;2022-12-18T04:54:08;3.50;;;2.12;;
36963;SDS011;22878;48.616;35.326;2022-12-18T04:56:34;3.02;;;2.05;;
36963;SDS011;22878;48.616;35.326;2022-12-18T04:59:00;3.65;;;2.33;;
36963;SDS011;22878;48.616;35.326;2022-12-18T05:05:07;4.17;;;2.20;;
36963;SDS011;22878;48.616;35.326;2022-12-18T05:07:34;4.28;;;2.15;;
36963;SDS011;22878;48.616;35.326;2022-12-18T05:10:00;3.98;;;2.20;;
36963;SDS011;22878;48.616;35.326;2022-12-18T05:16:07;4.60;;;2.72;;
36963;SDS011;22878;48.616;35.326;2022-12-18T05:18:33;5.45;;;2.35;;
36963;SDS011;22878;48.616;35.326;2022-12-18T05:21:00;3.22;;;1.92;;
36963;SDS011;22878;48.616;35.326;2022-12-18T05:23:26;3.50;;;1.90;;
36963;SDS011;22878;48.616;35.326;2022-12-18T05:28:24;3.55;;;2.25;;
36963;SDS011;22878;48.616;35.326;2022-12-18T05:30:52;3.52;;;2.30;;
36963;SDS011;22878;48.616;35.326;2022-12-18T05:33:24;4.03;;;2.10;;
36963;SDS011;22878;48.616;35.326;2022-12-18T05:35:54;3.55;;;2.20;;
36963;SDS011;22878;48.616;35.326;2022-12-18T05:38:23;6.25;;;2.25;;
36963;SDS011;22878;48.616;35.326;2022-12-18T05:40:51;4.03;;;2.62;;
36963;SDS011;22878;48.616;35.326;2022-12-18T05:43:18;3.92;;;2.27;;
36963;SDS011;22878;48.616;35.326;2022-12-18T05:45:47;3.95;;;2.40;;
36963;SDS011;22878;48.616;35.326;2022-12-18T05:48:14;3.95;;;2.50;;
36963;SDS011;22878;48.616;35.326;2022-12-18T05:50:42;4.33;;;2.72;;
36963;SDS011;22878;48.616;35.326;2022-12-18T05:53:10;5.53;;;2.65;;
36963;SDS011;22878;48.616;35.326;2022-12-18T05:55:39;5.53;;;3.45;;
36963;SDS011;22878;48.616;35.326;2022-12-18T05:58:06;6.03;;;3.70;;
36963;SDS011;22878;48.616;35.326;2022-12-18T06:00:35;6.25;;;3.70;;
36963;SDS011;22878;48.616;35.326;2022-12-18T06:03:09;5.50;;;3.67;;
36963;SDS011;22878;48.616;35.326;2022-12-18T06:05:37;5.45;;;3.35;;
36963;SDS011;22878;48.616;35.326;2022-12-18T06:08:06;4.78;;;3.30;;
36963;SDS011;22878;48.616;35.326;2022-12-18T06:10:32;5.53;;;3.50;;
36963;SDS011;22878;48.616;35.326;2022-12-18T06:12:58;6.10;;;3.70;;
36963;SDS011;22878;48.616;35.326;2022-12-18T06:15:25;5.58;;;3.65;;
36963;SDS011;22878;48.616;35.326;2022-12-18T06:17:51;6.95;;;4.03;;
36963;SDS011;22878;48.616;35.326;2022-12-18T06:20:17;5.75;;;3.80;;
36963;SDS011;22878;48.616;35.326;2022-12-18T06:26:24;6.60;;;3.95;;
36963;SDS011;22878;48.616;35.326;2022-12-18T06:32:30;7.83;;;4.28;;
36963;SDS011;22878;48.616;35.326;2022-12-18T06:34:56;5.65;;;3.35;;
36963;SDS011;22878;48.616;35.326;2022-12-18T06:39:59;7.45;;;3.90;;
36963;SDS011;22878;48.616;35.326;2022-12-18T06:42:26;6.85;;;4.00;;
36963;SDS011;22878;48.616;35.326;2022-12-18T06:44:53;8.25;;;4.17;;
36963;SDS011;22878;48.616;35.326;2022-12-18T06:47:19;9.53;;;4.22;;
36963;SDS011;22878;48.616;35.326;2022-12-18T06:49:45;9.43;;;4.67;;
36963;SDS011;22878;48.616;35.326;2022-12-18T06:52:13;7.37;;;4.25;;
36963;SDS011;22878;48.616;35.326;2022-12-18T06:54:39;9.10;;;4.60;;
36963;SDS011;22878;48.616;35.326;2022-12-18T06:57:05;9.40;;;5.10;;
36963;SDS011;22878;48.616;35.326;2022-12-18T06:59:31;12.05;;;5.37;;
36963;SDS011;22878;48.616;35.326;2022-12-18T07:01:59;16.67;;;6.17;;
36963;SDS011;22878;48.616;35.326;2022-12-18T07:04:28;19.98;;;7.10;;
36963;SDS011;22878;48.616;35.326;2022-12-18T07:06:55;19.15;;;7.62;;
36963;SDS011;22878;48.616;35.326;2022-12-18T07:09:21;22.62;;;8.20;;
36963;SDS011;22878;48.616;35.326;2022-12-18T07:19:08;24.23;;;8.33;;
36963;SDS011;22878;48.616;35.326;2022-12-18T07:21:33;27.65;;;8.93;;
36963;SDS011;22878;48.616;35.326;2022-12-18T07:23:59;23.02;;;8.50;;
36963;SDS011;22878;48.616;35.326;2022-12-18T07:26:25;26.77;;;9.05;;
36963;SDS011;22878;48.616;35.326;2022-12-18T07:28:54;25.27;;;9.28;;
36963;SDS011;22878;48.616;35.326;2022-12-18T07:31:22;25.45;;;9.78;;
36963;SDS011;22878;48.616;35.326;2022-12-18T07:33:50;32.00;;;9.93;;
36963;SDS011;22878;48.616;35.326;2022-12-18T07:39:21;29.55;;;11.20;;
36963;SDS011;22878;48.616;35.326;2022-12-18T07:41:47;30.23;;;11.30;;
36963;SDS011;22878;48.616;35.326;2022-12-18T07:44:15;27.50;;;11.00;;
36963;SDS011;22878;48.616;35.326;2022-12-18T07:46:41;32.35;;;11.85;;
36963;SDS011;22878;48.616;35.326;2022-12-18T07:52:48;33.33;;;11.22;;
36963;SDS011;22878;48.616;35.326;2022-12-18T07:55:13;30.88;;;11.10;;
36963;SDS011;22878;48.616;35.326;2022-12-18T07:57:40;29.25;;;10.45;;
36963;SDS011;22878;48.616;35.326;2022-12-18T08:00:06;31.73;;;11.40;;
36963;SDS011;22878;48.616;35.326;2022-12-18T08:02:33;34.03;;;12.90;;
36963;SDS011;22878;48.616;35.326;2022-12-18T08:04:59;27.15;;;10.90;;
36963;SDS011;22878;48.616;35.326;2022-12-18T08:07:25;25.15;;;9.93;;
36963;SDS011;22878;48.616;35.326;2022-12-18T08:09:51;23.62;;;9.55;;
36963;SDS011;22878;48.616;35.326;2022-12-18T08:12:17;24.80;;;9.85;;
36963;SDS011;22878;48.616;35.326;2022-12-18T08:14:43;23.47;;;9.80;;
36963;SDS011;22878;48.616;35.326;2022-12-18T08:17:09;26.40;;;10.38;;
36963;SDS011;22878;48.616;35.326;2022-12-18T08:19:35;24.52;;;9.23;;
36963;SDS011;22878;48.616;35.326;2022-12-18T08:22:01;22.60;;;9.53;;
36963;SDS011;22878;48.616;35.326;2022-12-18T08:24:27;25.72;;;8.70;;
36963;SDS011;22878;48.616;35.326;2022-12-18T08:30:34;22.40;;;8.80;;
36963;SDS011;22878;48.616;35.326;2022-12-18T08:33:01;24.20;;;9.48;;
36963;SDS011;22878;48.616;35.326;2022-12-18T08:35:27;26.45;;;9.98;;
36963;SDS011;22878;48.616;35.326;2022-12-18T08:37:53;23.67;;;9.33;;
36963;SDS011;22878;48.616;35.326;2022-12-18T08:40:19;33.18;;;11.53;;
36963;SDS011;22878;48.616;35.326;2022-12-18T08:42:45;32.28;;;11.78;;
36963;SDS011;22878;48.616;35.326;2022-12-18T08:48:06;32.17;;;11.85;;
36963;SDS011;22878;48.616;35.326;2022-12-18T08:50:32;39.50;;;13.53;;
36963;SDS011;22878;48.616;35.326;2022-12-18T08:52:57;36.73;;;12.95;;
36963;SDS011;22878;48.616;35.326;2022-12-18T08:55:23;39.13;;;13.60;;
36963;SDS011;22878;48.616;35.326;2022-12-18T08:57:50;41.42;;;13.75;;
36963;SDS011;22878;48.616;35.326;2022-12-18T09:00:16;47.33;;;14.68;;
36963;SDS011;22878;48.616;35.326;2022-12-18T09:02:42;48.38;;;15.45;;
36963;SDS011;22878;48.616;35.326;2022-12-18T09:05:08;45.95;;;15.18;;
36963;SDS011;22878;48.616;35.326;2022-12-18T09:07:35;46.33;;;15.10;;
36963;SDS011;22878;48.616;35.326;2022-12-18T09:10:01;50.92;;;16.50;;
36963;SDS011;22878;48.616;35.326;2022-12-18T09:12:27;44.73;;;15.18;;
36963;SDS011;22878;48.616;35.326;2022-12-18T09:14:53;45.92;;;15.38;;
36963;SDS011;22878;48.616;35.326;2022-12-18T09:17:19;39.92;;;14.23;;
36963;SDS011;22878;48.616;35.326;2022-12-18T09:19:45;43.40;;;13.95;;
36963;SDS011;22878;48.616;35.326;2022-12-18T09:22:11;35.85;;;12.65;;
36963;SDS011;22878;48.616;35.326;2022-12-18T09:24:37;36.98;;;13.53;;
36963;SDS011;22878;48.616;35.326;2022-12-18T09:27:03;36.65;;;12.88;;
36963;SDS011;22878;48.616;35.326;2022-12-18T09:29:29;36.63;;;13.35;;
36963;SDS011;22878;48.616;35.326;2022-12-18T09:31:55;33.15;;;11.30;;
36963;SDS011;22878;48.616;35.326;2022-12-18T09:34:21;34.75;;;12.88;;
36963;SDS011;22878;48.616;35.326;2022-12-18T09:36:47;34.13;;;12.60;;
36963;SDS011;22878;48.616;35.326;2022-12-18T09:39:13;31.70;;;11.95;;
36963;SDS011;22878;48.616;35.326;2022-12-18T09:41:47;34.23;;;12.30;;
36963;SDS011;22878;48.616;35.326;2022-12-18T09:49:40;26.48;;;9.48;;
36963;SDS011;22878;48.616;35.326;2022-12-18T09:57:22;30.62;;;11.53;;
36963;SDS011;22878;48.616;35.326;2022-12-18T09:59:55;30.37;;;11.43;;
36963;SDS011;22878;48.616;35.326;2022-12-18T10:02:30;32.50;;;11.28;;
36963;SDS011;22878;48.616;35.326;2022-12-18T10:10:23;32.15;;;11.85;;
36963;SDS011;22878;48.616;35.326;2022-12-18T10:13:19;32.23;;;12.43;;
36963;SDS011;22878;48.616;35.326;2022-12-18T10:16:03;29.87;;;11.65;;
36963;SDS011;22878;48.616;35.326;2022-12-18T10:21:42;30.12;;;11.35;;
36963;SDS011;22878;48.616;35.326;2022-12-18T10:26:13;39.95;;;14.30;;
36963;SDS011;22878;48.616;35.326;2022-12-18T10:28:40;33.48;;;12.70;;
36963;SDS011;22878;48.616;35.326;2022-12-18T10:31:07;34.70;;;12.88;;
36963;SDS011;22878;48.616;35.326;2022-12-18T10:33:43;52.85;;;19.42;;
36963;SDS011;22878;48.616;35.326;2022-12-18T10:36:10;39.98;;;14.35;;
36963;SDS011;22878;48.616;35.326;2022-12-18T10:38:36;40.92;;;14.95;;
36963;SDS011;22878;48.616;35.326;2022-12-18T10:41:06;38.13;;;14.03;;
36963;SDS011;22878;48.616;35.326;2022-12-18T10:43:47;38.60;;;13.98;;
36963;SDS011;22878;48.616;35.326;2022-12-18T10:46:19;38.88;;;14.25;;
36963;SDS011;22878;48.616;35.326;2022-12-18T10:56:33;42.65;;;15.10;;
36963;SDS011;22878;48.616;35.326;2022-12-18T10:59:02;46.05;;;16.82;;
36963;SDS011;22878;48.616;35.326;2022-12-18T11:07:00;46.85;;;16.48;;
36963;SDS011;22878;48.616;35.326;2022-12-18T11:14:47;45.83;;;17.42;;
36963;SDS011;22878;48.616;35.326;2022-12-18T11:19:54;46.00;;;16.97;;
36963;SDS011;22878;48.616;35.326;2022-12-18T11:22:29;45.73;;;15.13;;
36963;SDS011;22878;48.616;35.326;2022-12-18T11:29:16;36.40;;;14.65;;
36963;SDS011;22878;48.616;35.326;2022-12-18T11:31:46;38.58;;;13.03;;
36963;SDS011;22878;48.616;35.326;2022-12-18T11:34:28;36.48;;;13.78;;
36963;SDS011;22878;48.616;35.326;2022-12-18T11:36:58;41.25;;;13.68;;
36963;SDS011;22878;48.616;35.326;2022-12-18T11:42:24;41.18;;;14.35;;
36963;SDS011;22878;48.616;35.326;2022-12-18T11:45:29;40.15;;;14.03;;
36963;SDS011;22878;48.616;35.326;2022-12-18T11:48:03;40.78;;;14.75;;
36963;SDS011;22878;48.616;35.326;2022-12-18T11:53:11;36.45;;;14.05;;
36963;SDS011;22878;48.616;35.326;2022-12-18T11:55:49;46.20;;;15.00;;
36963;SDS011;22878;48.616;35.326;2022-12-18T11:58:46;34.85;;;12.85;;
36963;SDS011;22878;48.616;35.326;2022-12-18T12:07:39;42.48;;;15.15;;
36963;SDS011;22878;48.616;35.326;2022-12-18T12:21:43;36.25;;;12.30;;
36963;SDS011;22878;48.616;35.326;2022-12-18T12:30:11;30.20;;;12.23;;
36963;SDS011;22878;48.616;35.326;2022-12-18T12:38:26;26.15;;;9.63;;
36963;SDS011;22878;48.616;35.326;2022-12-18T12:41:04;27.82;;;10.35;;
36963;SDS011;22878;48.616;35.326;2022-12-18T12:43:38;23.00;;;9.45;;
36963;SDS011;22878;48.616;35.326;2022-12-18T12:46:09;22.52;;;8.70;;
36963;SDS011;22878;48.616;35.326;2022-12-18T12:51:33;27.32;;;9.33;;
36963;SDS011;22878;48.616;35.326;2022-12-18T13:05:49;25.08;;;10.03;;
36963;SDS011;22878;48.616;35.326;2022-12-18T13:08:27;31.70;;;11.05;;
36963;SDS011;22878;48.616;35.326;2022-12-18T13:10:58;29.07;;;10.85;;
36963;SDS011;22878;48.616;35.326;2022-12-18T13:13:51;29.77;;;11.35;;
36963;SDS011;22878;48.616;35.326;2022-12-18T13:16:21;28.98;;;10.50;;
36963;SDS011;22878;48.616;35.326;2022-12-18T13:18:50;26.17;;;10.60;;
36963;SDS011;22878;48.616;35.326;2022-12-18T13:21:28;26.05;;;10.48;;
36963;SDS011;22878;48.616;35.326;2022-12-18T13:24:13;23.05;;;8.48;;
36963;SDS011;22878;48.616;35.326;2022-12-18T13:26:47;22.48;;;8.90;;
36963;SDS011;22878;48.616;35.326;2022-12-18T13:29:16;24.65;;;8.85;;
36963;SDS011;22878;48.616;35.326;2022-12-18T13:32:22;21.95;;;9.45;;
36963;SDS011;22878;48.616;35.326;2022-12-18T13:37:51;26.17;;;8.65;;
36963;SDS011;22878;48.616;35.326;2022-12-18T13:46:03;26.70;;;10.05;;
36963;SDS011;22878;48.616;35.326;2022-12-18T13:51:52;27.13;;;10.25;;
36963;SDS011;22878;48.616;35.326;2022-12-18T14:00:23;26.17;;;10.08;;
36963;SDS011;22878;48.616;35.326;2022-12-18T14:02:50;24.87;;;9.30;;
36963;SDS011;22878;48.616;35.326;2022-12-18T14:05:27;23.92;;;10.20;;
36963;SDS011;22878;48.616;35.326;2022-12-18T14:07:55;29.10;;;10.53;;
36963;SDS011;22878;48.616;35.326;2022-12-18T14:10:27;23.80;;;9.98;;
36963;SDS011;22878;48.616;35.326;2022-12-18T14:12:53;23.15;;;9.83;;
36963;SDS011;22878;48.616;35.326;2022-12-18T14:15:27;22.93;;;8.83;;
36963;SDS011;22878;48.616;35.326;2022-12-18T14:17:59;21.10;;;9.00;;
36963;SDS011;22878;48.616;35.326;2022-12-18T14:20:31;25.08;;;9.23;;
36963;SDS011;22878;48.616;35.326;2022-12-18T14:22:58;23.87;;;9.35;;
36963;SDS011;22878;48.616;35.326;2022-12-18T14:25:28;24.92;;;9.50;;
36963;SDS011;22878;48.616;35.326;2022-12-18T14:35:55;23.62;;;9.40;;
36963;SDS011;22878;48.616;35.326;2022-12-18T14:38:36;21.50;;;8.88;;
36963;SDS011;22878;48.616;35.326;2022-12-18T14:41:11;21.42;;;8.80;;
36963;SDS011;22878;48.616;35.326;2022-12-18T14:43:40;23.57;;;9.53;;
36963;SDS011;22878;48.616;35.326;2022-12-18T14:49:17;21.52;;;8.55;;
36963;SDS011;22878;48.616;35.326;2022-12-18T14:52:00;25.35;;;9.43;;
36963;SDS011;22878;48.616;35.326;2022-12-18T14:54:29;21.35;;;8.58;;
36963;SDS011;22878;48.616;35.326;2022-12-18T14:56:59;24.40;;;10.05;;
36963;SDS011;22878;48.616;35.326;2022-12-18T14:59:31;22.85;;;9.63;;
36963;SDS011;22878;48.616;35.326;2022-12-18T15:04:44;27.30;;;10.32;;
36963;SDS011;22878;48.616;35.326;2022-12-18T15:07:14;24.63;;;9.93;;
36963;SDS011;22878;48.616;35.326;2022-12-18T15:10:10;27.80;;;10.40;;
36963;SDS011;22878;48.616;35.326;2022-12-18T15:18:11;22.13;;;9.93;;
36963;SDS011;22878;48.616;35.326;2022-12-18T15:20:40;26.17;;;10.03;;
36963;SDS011;22878;48.616;35.326;2022-12-18T15:26:00;26.35;;;10.13;;
36963;SDS011;22878;48.616;35.326;2022-12-18T15:28:31;25.12;;;10.35;;
36963;SDS011;22878;48.616;35.326;2022-12-18T15:34:09;21.80;;;9.35;;
36963;SDS011;22878;48.616;35.326;2022-12-18T15:36:45;20.85;;;8.80;;
36963;SDS011;22878;48.616;35.326;2022-12-18T15:39:12;21.30;;;8.85;;
36963;SDS011;22878;48.616;35.326;2022-12-18T15:41:39;22.65;;;8.88;;
36963;SDS011;22878;48.616;35.326;2022-12-18T15:44:21;24.07;;;9.13;;
36963;SDS011;22878;48.616;35.326;2022-12-18T15:46:49;22.15;;;8.60;;
36963;SDS011;22878;48.616;35.326;2022-12-18T15:49:15;20.92;;;8.45;;
36963;SDS011;22878;48.616;35.326;2022-12-18T15:51:41;18.50;;;8.10;;
36963;SDS011;22878;48.616;35.326;2022-12-18T15:54:09;20.95;;;8.48;;
36963;SDS011;22878;48.616;35.326;2022-12-18T15:56:39;19.65;;;8.18;;
36963;SDS011;22878;48.616;35.326;2022-12-18T15:59:23;20.50;;;9.05;;
36963;SDS011;22878;48.616;35.326;2022-12-18T16:01:50;20.48;;;9.08;;
36963;SDS011;22878;48.616;35.326;2022-12-18T16:04:20;19.60;;;8.95;;
36963;SDS011;22878;48.616;35.326;2022-12-18T16:06:48;20.80;;;8.68;;
36963;SDS011;22878;48.616;35.326;2022-12-18T16:09:14;19.27;;;8.25;;
36963;SDS011;22878;48.616;35.326;2022-12-18T16:11:42;22.58;;;8.95;;
36963;SDS011;22878;48.616;35.326;2022-12-18T16:16:51;23.62;;;9.55;;
36963;SDS011;22878;48.616;35.326;2022-12-18T16:19:21;21.57;;;8.63;;
36963;SDS011;22878;48.616;35.326;2022-12-18T16:21:47;23.12;;;9.28;;
36963;SDS011;22878;48.616;35.326;2022-12-18T16:26:49;22.73;;;9.73;;
36963;SDS011;22878;48.616;35.326;2022-12-18T16:29:19;20.50;;;9.30;;
36963;SDS011;22878;48.616;35.326;2022-12-18T16:31:48;23.62;;;9.05;;
36963;SDS011;22878;48.616;35.326;2022-12-18T16:34:21;22.67;;;8.78;;
36963;SDS011;22878;48.616;35.326;2022-12-18T16:36:51;17.80;;;8.28;;
36963;SDS011;22878;48.616;35.326;2022-12-18T16:39:19;21.33;;;9.35;;
36963;SDS011;22878;48.616;35.326;2022-12-18T16:41:45;21.68;;;8.25;;
36963;SDS011;22878;48.616;35.326;2022-12-18T16:44:12;21.20;;;8.50;;
36963;SDS011;22878;48.616;35.326;2022-12-18T16:46:39;20.12;;;8.08;;
36963;SDS011;22878;48.616;35.326;2022-12-18T16:49:11;23.85;;;9.15;;
36963;SDS011;22878;48.616;35.326;2022-12-18T16:51:40;19.27;;;8.70;;
36963;SDS011;22878;48.616;35.326;2022-12-18T16:54:06;18.55;;;8.03;;
36963;SDS011;22878;48.616;35.326;2022-12-18T16:56:33;22.10;;;8.93;;
36963;SDS011;22878;48.616;35.326;2022-12-18T16:58:59;20.52;;;8.60;;
36963;SDS011;22878;48.616;35.326;2022-12-18T17:01:28;18.37;;;7.62;;
36963;SDS011;22878;48.616;35.326;2022-12-18T17:03:57;19.40;;;8.10;;
36963;SDS011;22878;48.616;35.326;2022-12-18T17:06:26;21.48;;;8.58;;
36963;SDS011;22878;48.616;35.326;2022-12-18T17:11:24;18.92;;;7.97;;
36963;SDS011;22878;48.616;35.326;2022-12-18T17:13:50;16.23;;;7.35;;
36963;SDS011;22878;48.616;35.326;2022-12-18T17:16:17;20.10;;;8.35;;
36963;SDS011;22878;48.616;35.326;2022-12-18T17:18:43;14.98;;;7.03;;
36963;SDS011;22878;48.616;35.326;2022-12-18T17:21:10;17.65;;;7.05;;
36963;SDS011;22878;48.616;35.326;2022-12-18T17:23:39;16.62;;;7.42;;
36963;SDS011;22878;48.616;35.326;2022-12-18T17:26:06;18.52;;;6.75;;
36963;SDS011;22878;48.616;35.326;2022-12-18T17:32:15;18.52;;;7.20;;
36963;SDS011;22878;48.616;35.326;2022-12-18T17:34:42;17.85;;;7.20;;
36963;SDS011;22878;48.616;35.326;2022-12-18T17:37:08;16.25;;;7.70;;
36963;SDS011;22878;48.616;35.326;2022-12-18T17:39:34;18.50;;;7.90;;
36963;SDS011;22878;48.616;35.326;2022-12-18T17:42:01;17.15;;;7.20;;
36963;SDS011;22878;48.616;35.326;2022-12-18T17:44:28;16.30;;;7.55;;
36963;SDS011;22878;48.616;35.326;2022-12-18T17:46:54;14.53;;;6.97;;
36963;SDS011;22878;48.616;35.326;2022-12-18T17:49:20;15.25;;;6.58;;
36963;SDS011;22878;48.616;35.326;2022-12-18T17:51:46;13.90;;;6.35;;
36963;SDS011;22878;48.616;35.326;2022-12-18T17:54:13;16.85;;;6.55;;
36963;SDS011;22878;48.616;35.326;2022-12-18T17:56:39;13.75;;;5.60;;
36963;SDS011;22878;48.616;35.326;2022-12-18T17:59:05;13.68;;;6.37;;
36963;SDS011;22878;48.616;35.326;2022-12-18T18:01:31;14.87;;;6.30;;
36963;SDS011;22878;48.616;35.326;2022-12-18T18:03:57;12.70;;;6.10;;
36963;SDS011;22878;48.616;35.326;2022-12-18T18:06:24;13.25;;;6.20;;
36963;SDS011;22878;48.616;35.326;2022-12-18T18:08:50;15.85;;;6.80;;
36963;SDS011;22878;48.616;35.326;2022-12-18T18:11:19;14.73;;;6.72;;
36963;SDS011;22878;48.616;35.326;2022-12-18T18:14:09;12.88;;;6.25;;
36963;SDS011;22878;48.616;35.326;2022-12-18T18:16:41;14.03;;;6.25;;
36963;SDS011;22878;48.616;35.326;2022-12-18T18:19:10;16.23;;;6.75;;
36963;SDS011;22878;48.616;35.326;2022-12-18T18:21:41;14.25;;;6.25;;
36963;SDS011;22878;48.616;35.326;2022-12-18T18:24:09;17.45;;;6.75;;
36963;SDS011;22878;48.616;35.326;2022-12-18T18:26:38;15.95;;;6.33;;
36963;SDS011;22878;48.616;35.326;2022-12-18T18:29:06;16.37;;;6.25;;